Time;durP1;ratioP1;P1;durP2;ratioP2;P2;SDS_P1;SDS_P2;PMS_P1;PMS_P2;Temp;Humidity;BMP_temperature;BMP_pressure;BME280_temperature;BME280_humidity;BME280_pressure;Samples;Min_cycle;Max_cycle;Signal;HPM_P1;HPM_P2
2022/04/11 00:02:17;;;;;;;10.20;6.30;;;;;;;;;;5032127;28;20251;-50
2022/04/11 00:04:43;;;;;;;6.05;5.20;;;;;;;;;;5032049;28;20433;-47
2022/04/11 00:07:09;;;;;;;7.00;5.55;;;;;;;;;;5031916;28;20175;-47
2022/04/11 00:09:35;;;;;;;7.73;6.93;;;;;;;;;;5031791;28;20233;-49
2022/04/11 00:12:01;;;;;;;10.00;6.07;;;;;;;;;;5031839;28;20413;-46
2022/04/11 00:14:26;;;;;;;8.55;6.63;;;;;;;;;;5031856;28;20945;-46
2022/04/11 00:16:53;;;;;;;8.53;6.13;;;;;;;;;;5031990;28;20178;-46
2022/04/11 00:19:19;;;;;;;9.43;6.35;;;;;;;;;;5031829;28;20429;-46
2022/04/11 00:21:45;;;;;;;7.65;5.90;;;;;;;;;;5031705;28;20167;-46
2022/04/11 00:24:11;;;;;;;7.13;6.23;;;;;;;;;;5031812;28;20200;-46
2022/04/11 00:26:37;;;;;;;9.93;6.30;;;;;;;;;;5031705;28;20874;-46
2022/04/11 00:29:03;;;;;;;8.20;6.50;;;;;;;;;;5031723;28;20464;-46
2022/04/11 00:31:29;;;;;;;6.77;5.67;;;;;;;;;;5031811;28;20440;-46
2022/04/11 00:33:56;;;;;;;8.38;5.35;;;;;;;;;;5031558;28;20545;-46
2022/04/11 00:36:22;;;;;;;5.43;4.68;;;;;;;;;;5034738;28;20183;-46
2022/04/11 00:38:48;;;;;;;9.32;6.10;;;;;;;;;;5035854;28;20199;-46
2022/04/11 00:41:14;;;;;;;10.73;5.47;;;;;;;;;;5035475;28;20203;-46
2022/04/11 00:43:40;;;;;;;5.65;4.93;;;;;;;;;;5035634;28;20838;-46
2022/04/11 00:46:07;;;;;;;5.70;4.70;;;;;;;;;;5035671;28;20171;-46
2022/04/11 00:48:34;;;;;;;7.03;5.05;;;;;;;;;;5035604;28;20214;-48
2022/04/11 00:51:04;;;;;;;7.10;5.45;;;;;;;;;;5035156;28;20218;-47
2022/04/11 00:53:32;;;;;;;8.32;5.65;;;;;;;;;;5035332;28;20258;-47
2022/04/11 00:55:58;;;;;;;9.02;4.82;;;;;;;;;;5035441;28;20168;-48
2022/04/11 00:58:24;;;;;;;5.07;4.30;;;;;;;;;;5035892;28;20171;-46
2022/04/11 01:00:50;;;;;;;7.07;4.15;;;;;;;;;;5035037;28;20171;-48
2022/04/11 01:03:16;;;;;;;5.95;4.72;;;;;;;;;;5034813;28;20194;-50
2022/04/11 01:05:42;;;;;;;8.77;5.25;;;;;;;;;;5034707;28;20226;-48
2022/04/11 01:08:09;;;;;;;7.67;5.43;;;;;;;;;;5035657;28;20207;-50
2022/04/11 01:10:35;;;;;;;6.68;5.88;;;;;;;;;;5035022;28;20828;-46
2022/04/11 01:13:01;;;;;;;6.50;4.80;;;;;;;;;;5034944;28;20325;-46
2022/04/11 01:15:28;;;;;;;8.13;5.68;;;;;;;;;;5035153;28;20912;-46
2022/04/11 01:17:54;;;;;;;9.50;5.63;;;;;;;;;;5035406;28;20179;-46
2022/04/11 01:20:20;;;;;;;8.17;4.90;;;;;;;;;;5034829;28;20172;-47
2022/04/11 01:22:47;;;;;;;14.95;5.85;;;;;;;;;;5034954;28;20474;-47
2022/04/11 01:25:13;;;;;;;12.43;6.70;;;;;;;;;;5034821;28;20187;-46
2022/04/11 01:27:40;;;;;;;11.57;6.13;;;;;;;;;;5034927;28;20168;-46
2022/04/11 01:30:06;;;;;;;12.93;6.43;;;;;;;;;;5034820;28;20546;-48
2022/04/11 01:32:33;;;;;;;12.65;6.20;;;;;;;;;;5034705;28;20225;-47
2022/04/11 01:34:59;;;;;;;14.30;7.05;;;;;;;;;;5034722;28;20192;-46
2022/04/11 01:37:26;;;;;;;16.23;7.30;;;;;;;;;;5034661;28;20255;-47
2022/04/11 01:39:52;;;;;;;19.33;9.30;;;;;;;;;;5034441;28;20171;-46
2022/04/11 01:42:18;;;;;;;13.43;8.00;;;;;;;;;;5034542;28;20164;-46
2022/04/11 01:44:44;;;;;;;22.17;6.57;;;;;;;;;;5034545;28;20191;-47
2022/04/11 01:47:10;;;;;;;12.70;6.50;;;;;;;;;;5034557;28;20422;-46
2022/04/11 01:49:35;;;;;;;13.23;7.10;;;;;;;;;;5034222;28;20453;-46
2022/04/11 01:52:01;;;;;;;9.17;6.60;;;;;;;;;;5034306;28;20402;-47
2022/04/11 01:54:28;;;;;;;6.93;5.88;;;;;;;;;;5034512;28;20484;-46
2022/04/11 01:56:54;;;;;;;8.57;5.70;;;;;;;;;;5034399;28;20243;-46
2022/04/11 01:59:20;;;;;;;15.67;6.40;;;;;;;;;;5034210;28;20881;-47
2022/04/11 02:01:46;;;;;;;10.90;7.70;;;;;;;;;;5034249;28;20390;-45
2022/04/11 02:04:12;;;;;;;9.90;6.00;;;;;;;;;;5034106;28;20418;-47
2022/04/11 02:06:38;;;;;;;10.23;6.07;;;;;;;;;;5034126;28;20411;-49
2022/04/11 02:09:04;;;;;;;6.30;5.20;;;;;;;;;;5034160;28;20398;-50
2022/04/11 02:11:30;;;;;;;13.13;6.90;;;;;;;;;;5033955;28;20402;-46
2022/04/11 02:13:56;;;;;;;12.55;6.10;;;;;;;;;;5033914;28;20199;-46
2022/04/11 02:16:23;;;;;;;8.73;5.67;;;;;;;;;;5034150;28;20530;-46
2022/04/11 02:18:49;;;;;;;13.50;6.22;;;;;;;;;;5033934;28;20394;-51
2022/04/11 02:21:15;;;;;;;8.85;5.80;;;;;;;;;;5033586;28;20543;-50
2022/04/11 02:23:41;;;;;;;6.63;5.10;;;;;;;;;;5033837;28;20260;-46
2022/04/11 02:26:08;;;;;;;7.53;5.25;;;;;;;;;;5033889;28;20171;-50
2022/04/11 02:28:34;;;;;;;6.78;4.88;;;;;;;;;;5033840;28;20535;-46
2022/04/11 02:31:00;;;;;;;6.40;5.20;;;;;;;;;;5033529;28;20636;-48
2022/04/11 02:33:26;;;;;;;6.93;4.97;;;;;;;;;;5033464;28;20493;-49
2022/04/11 02:35:52;;;;;;;6.00;4.53;;;;;;;;;;5033577;28;20398;-50
2022/04/11 02:38:18;;;;;;;6.03;5.53;;;;;;;;;;5033618;28;20477;-49
2022/04/11 02:40:46;;;;;;;10.83;5.47;;;;;;;;;;5033353;28;20247;-46
2022/04/11 02:43:12;;;;;;;6.28;4.50;;;;;;;;;;5033431;28;20424;-46
2022/04/11 02:45:37;;;;;;;5.57;4.73;;;;;;;;;;5033570;28;20168;-46
2022/04/11 02:48:04;;;;;;;5.77;5.13;;;;;;;;;;5033388;28;20402;-46
2022/04/11 02:50:30;;;;;;;7.25;5.13;;;;;;;;;;5032917;28;20430;-46
2022/04/11 02:52:55;;;;;;;6.17;5.63;;;;;;;;;;5033172;28;20196;-46
2022/04/11 02:55:21;;;;;;;6.73;5.03;;;;;;;;;;5033236;28;20445;-49
2022/04/11 02:57:47;;;;;;;7.13;5.37;;;;;;;;;;5032718;28;20410;-49
2022/04/11 03:00:14;;;;;;;9.80;4.70;;;;;;;;;;5033086;28;20590;-46
2022/04/11 03:02:40;;;;;;;6.55;4.88;;;;;;;;;;5033052;28;20434;-49
2022/04/11 03:05:07;;;;;;;7.78;4.57;;;;;;;;;;5032969;28;20535;-47
2022/04/11 03:07:33;;;;;;;6.85;4.60;;;;;;;;;;5033059;28;20170;-46
2022/04/11 03:09:59;;;;;;;12.07;5.93;;;;;;;;;;5032757;28;20168;-47
2022/04/11 03:12:28;;;;;;;6.87;4.60;;;;;;;;;;5031647;28;20403;-48
2022/04/11 03:14:54;;;;;;;7.55;5.22;;;;;;;;;;5032849;28;20833;-46
2022/04/11 03:17:20;;;;;;;6.15;4.68;;;;;;;;;;5032746;28;20167;-46
2022/04/11 03:19:46;;;;;;;6.23;4.83;;;;;;;;;;5032630;28;20172;-46
2022/04/11 03:22:12;;;;;;;8.70;4.80;;;;;;;;;;5032921;28;20449;-46
2022/04/11 03:24:38;;;;;;;6.13;5.10;;;;;;;;;;5032934;28;20557;-47
2022/04/11 03:27:04;;;;;;;5.90;5.30;;;;;;;;;;5032712;28;20175;-46
2022/04/11 03:29:30;;;;;;;6.18;5.00;;;;;;;;;;5032612;28;20178;-46
2022/04/11 03:31:56;;;;;;;6.05;5.00;;;;;;;;;;5032467;28;20246;-46
2022/04/11 03:34:23;;;;;;;5.03;4.63;;;;;;;;;;5032609;28;20298;-47
2022/04/11 03:36:51;;;;;;;7.13;5.45;;;;;;;;;;5032552;28;20933;-46
2022/04/11 03:39:17;;;;;;;6.72;5.22;;;;;;;;;;5032308;28;20172;-47
2022/04/11 03:41:46;;;;;;;9.50;5.40;;;;;;;;;;5032334;28;20222;-47
2022/04/11 03:44:12;;;;;;;5.40;4.90;;;;;;;;;;5032330;28;20468;-46
2022/04/11 03:46:38;;;;;;;8.40;6.40;;;;;;;;;;5032249;28;20534;-46
2022/04/11 03:49:04;;;;;;;7.22;5.55;;;;;;;;;;5032202;28;20768;-46
2022/04/11 03:51:30;;;;;;;9.77;5.25;;;;;;;;;;5032140;28;20171;-46
2022/04/11 03:53:56;;;;;;;7.40;5.80;;;;;;;;;;5032047;28;20210;-46
2022/04/11 03:56:22;;;;;;;9.20;6.10;;;;;;;;;;5032154;28;20399;-45
2022/04/11 03:58:48;;;;;;;13.03;5.80;;;;;;;;;;5032270;28;20434;-47
2022/04/11 04:01:14;;;;;;;5.60;5.10;;;;;;;;;;5031760;28;20449;-46
2022/04/11 04:03:41;;;;;;;7.63;5.45;;;;;;;;;;5032167;28;20651;-46
2022/04/11 04:06:07;;;;;;;6.82;6.10;;;;;;;;;;5032185;28;20204;-46
2022/04/11 04:08:33;;;;;;;7.35;5.65;;;;;;;;;;5032086;28;20640;-46
2022/04/11 04:10:59;;;;;;;9.45;5.45;;;;;;;;;;5030917;28;20282;-46
2022/04/11 04:13:25;;;;;;;9.93;5.70;;;;;;;;;;5031777;28;20282;-46
2022/04/11 04:15:51;;;;;;;10.82;5.30;;;;;;;;;;5031844;28;20175;-46
2022/04/11 04:18:17;;;;;;;13.33;6.10;;;;;;;;;;5031845;28;20175;-46
2022/04/11 04:20:43;;;;;;;9.00;6.10;;;;;;;;;;5031660;28;20486;-47
2022/04/11 04:23:09;;;;;;;14.98;7.00;;;;;;;;;;5031640;28;20460;-49
2022/04/11 04:25:35;;;;;;;12.83;7.63;;;;;;;;;;5031749;28;20187;-51
2022/04/11 04:28:02;;;;;;;11.85;8.23;;;;;;;;;;5031799;28;20786;-51
2022/04/11 04:30:28;;;;;;;15.13;8.40;;;;;;;;;;5031441;28;20530;-47
2022/04/11 04:32:55;;;;;;;11.70;8.10;;;;;;;;;;5031541;28;20172;-47
2022/04/11 04:35:21;;;;;;;14.40;7.60;;;;;;;;;;5031713;28;20164;-46
2022/04/11 04:37:46;;;;;;;14.47;7.20;;;;;;;;;;5032040;28;20254;-47
2022/04/11 04:40:12;;;;;;;18.10;8.73;;;;;;;;;;5031425;28;20402;-46
2022/04/11 04:42:39;;;;;;;21.97;8.73;;;;;;;;;;5031648;28;20406;-47
2022/04/11 04:45:08;;;;;;;12.80;5.22;;;;;;;;;;5031372;28;20414;-46
2022/04/11 04:47:34;;;;;;;9.80;6.35;;;;;;;;;;5031638;28;20243;-46
2022/04/11 04:50:00;;;;;;;11.23;5.63;;;;;;;;;;5031300;28;20183;-46
2022/04/11 04:52:26;;;;;;;8.00;5.38;;;;;;;;;;5031528;28;20164;-46
2022/04/11 04:54:52;;;;;;;10.25;6.43;;;;;;;;;;5031450;28;20210;-46
2022/04/11 04:57:18;;;;;;;7.65;4.80;;;;;;;;;;5031539;28;20159;-45
2022/04/11 04:59:44;;;;;;;17.87;5.40;;;;;;;;;;5031680;28;20646;-46
2022/04/11 05:02:10;;;;;;;8.50;5.27;;;;;;;;;;5031632;28;20780;-47
2022/04/11 05:04:36;;;;;;;7.00;5.70;;;;;;;;;;5031302;28;20426;-48
2022/04/11 05:07:02;;;;;;;18.37;6.00;;;;;;;;;;5031369;28;20597;-49
2022/04/11 05:09:28;;;;;;;6.20;5.40;;;;;;;;;;5031239;28;20413;-50
2022/04/11 05:11:54;;;;;;;9.93;6.00;;;;;;;;;;5030135;28;20191;-46
2022/04/11 05:14:20;;;;;;;10.97;6.00;;;;;;;;;;5030816;28;20472;-46
2022/04/11 05:16:46;;;;;;;10.93;6.50;;;;;;;;;;5031384;28;20399;-46
2022/04/11 05:19:12;;;;;;;12.17;5.60;;;;;;;;;;5031195;28;20768;-46
2022/04/11 05:21:38;;;;;;;12.27;6.30;;;;;;;;;;5032824;28;20413;-46
2022/04/11 05:24:04;;;;;;;8.80;6.27;;;;;;;;;;5034849;28;20483;-45
2022/04/11 05:26:30;;;;;;;11.43;6.93;;;;;;;;;;5034938;28;20780;-47
2022/04/11 05:28:56;;;;;;;6.05;5.35;;;;;;;;;;5035373;28;20665;-46
2022/04/11 05:31:22;;;;;;;11.10;7.07;;;;;;;;;;5034756;28;20203;-47
2022/04/11 05:33:48;;;;;;;9.70;7.03;;;;;;;;;;5034660;28;20595;-47
2022/04/11 05:36:17;;;;;;;10.47;7.10;;;;;;;;;;5034847;28;20457;-49
2022/04/11 05:38:43;;;;;;;9.20;6.57;;;;;;;;;;5034831;28;20401;-46
2022/04/11 05:41:09;;;;;;;8.60;6.40;;;;;;;;;;5034998;28;20612;-46
2022/04/11 05:43:35;;;;;;;17.63;8.80;;;;;;;;;;5034961;28;20194;-47
2022/04/11 05:46:02;;;;;;;9.30;6.20;;;;;;;;;;5034841;28;20168;-46
2022/04/11 05:48:30;;;;;;;12.63;6.55;;;;;;;;;;5034609;28;20456;-46
2022/04/11 05:50:57;;;;;;;9.40;6.85;;;;;;;;;;5034266;28;20211;-46
2022/04/11 05:53:23;;;;;;;7.47;6.75;;;;;;;;;;5034257;28;20235;-49
2022/04/11 05:55:49;;;;;;;10.97;6.43;;;;;;;;;;5034307;28;20214;-46
2022/04/11 05:58:15;;;;;;;8.07;6.37;;;;;;;;;;5034373;28;20413;-45
2022/04/11 06:00:41;;;;;;;8.60;6.33;;;;;;;;;;5034107;28;20410;-45
2022/04/11 06:03:06;;;;;;;8.07;6.60;;;;;;;;;;5033590;28;20411;-46
2022/04/11 06:05:32;;;;;;;11.37;6.87;;;;;;;;;;5033902;28;20437;-46
2022/04/11 06:07:58;;;;;;;10.27;6.77;;;;;;;;;;5033722;28;20410;-45
2022/04/11 06:10:24;;;;;;;11.07;7.50;;;;;;;;;;5033352;28;20967;-46
2022/04/11 06:12:50;;;;;;;13.55;6.75;;;;;;;;;;5033283;28;20402;-47
2022/04/11 06:15:17;;;;;;;13.70;7.60;;;;;;;;;;5033676;28;20538;-51
2022/04/11 06:17:44;;;;;;;14.13;7.35;;;;;;;;;;5034041;28;20395;-47
2022/04/11 06:20:10;;;;;;;14.32;7.85;;;;;;;;;;5033791;28;20250;-46
2022/04/11 06:22:40;;;;;;;11.48;8.25;;;;;;;;;;5034011;28;20171;-46
2022/04/11 06:25:08;;;;;;;17.90;7.93;;;;;;;;;;5033684;28;20207;-45
2022/04/11 06:27:34;;;;;;;8.05;7.20;;;;;;;;;;5029671;28;20531;-46
2022/04/11 06:30:00;;;;;;;9.27;7.55;;;;;;;;;;5030931;28;20180;-48
2022/04/11 06:32:27;;;;;;;10.83;7.27;;;;;;;;;;5031716;28;20171;-47
2022/04/11 06:34:53;;;;;;;11.48;6.57;;;;;;;;;;5031609;28;20831;-46
2022/04/11 06:37:21;;;;;;;9.10;6.53;;;;;;;;;;5033485;28;20590;-46
2022/04/11 06:39:47;;;;;;;10.75;7.68;;;;;;;;;;5033666;28;20168;-46
2022/04/11 06:42:13;;;;;;;10.30;7.38;;;;;;;;;;5033492;28;20243;-46
2022/04/11 06:44:39;;;;;;;15.23;7.70;;;;;;;;;;5033697;28;20270;-46
2022/04/11 06:47:05;;;;;;;11.75;8.05;;;;;;;;;;5033512;28;20396;-46
2022/04/11 06:49:31;;;;;;;8.13;6.80;;;;;;;;;;5033055;28;20568;-45
2022/04/11 06:51:57;;;;;;;7.27;6.57;;;;;;;;;;5033200;28;20537;-47
2022/04/11 06:54:23;;;;;;;14.47;6.50;;;;;;;;;;5033404;28;20593;-48
2022/04/11 06:56:49;;;;;;;8.73;5.90;;;;;;;;;;5033251;28;20487;-50
2022/04/11 06:59:15;;;;;;;7.83;5.63;;;;;;;;;;5033073;28;20401;-47
2022/04/11 07:01:41;;;;;;;7.17;5.93;;;;;;;;;;5033006;28;20410;-45
2022/04/11 07:04:08;;;;;;;8.20;5.40;;;;;;;;;;5033224;28;20990;-45
2022/04/11 07:06:34;;;;;;;4.83;4.30;;;;;;;;;;5032974;28;20404;-47
2022/04/11 07:09:00;;;;;;;8.23;4.57;;;;;;;;;;5033503;28;20797;-48
2022/04/11 07:11:26;;;;;;;5.53;4.97;;;;;;;;;;5032829;28;20805;-51
2022/04/11 07:13:52;;;;;;;7.10;4.30;;;;;;;;;;5032797;28;20464;-50
2022/04/11 07:16:18;;;;;;;8.63;3.60;;;;;;;;;;5032925;28;20406;-50
2022/04/11 07:18:44;;;;;;;5.17;4.03;;;;;;;;;;5032900;28;20401;-51
2022/04/11 07:21:09;;;;;;;4.13;3.40;;;;;;;;;;5032609;28;20879;-50
2022/04/11 07:23:35;;;;;;;7.80;4.30;;;;;;;;;;5032732;28;20416;-51
2022/04/11 07:26:01;;;;;;;5.90;4.10;;;;;;;;;;5032771;28;20406;-50
2022/04/11 07:28:27;;;;;;;6.23;3.60;;;;;;;;;;5032793;28;20428;-51
2022/04/11 07:30:53;;;;;;;8.17;4.90;;;;;;;;;;5032418;28;20446;-50
2022/04/11 07:33:19;;;;;;;5.03;3.63;;;;;;;;;;5032479;28;20514;-51
2022/04/11 07:35:45;;;;;;;4.80;3.87;;;;;;;;;;5032477;28;20403;-51
2022/04/11 07:38:11;;;;;;;3.53;3.20;;;;;;;;;;5032722;28;20402;-51
2022/04/11 07:40:37;;;;;;;4.53;3.10;;;;;;;;;;5032407;28;20413;-50
2022/04/11 07:43:03;;;;;;;4.63;3.13;;;;;;;;;;5032569;28;20403;-50
2022/04/11 07:45:29;;;;;;;5.63;3.53;;;;;;;;;;5027441;28;20411;-51
2022/04/11 07:47:55;;;;;;;5.77;3.60;;;;;;;;;;5012687;28;20399;-50
2022/04/11 07:50:21;;;;;;;6.73;3.60;;;;;;;;;;5012035;28;20426;-50
2022/04/11 07:52:47;;;;;;;4.33;3.60;;;;;;;;;;5012571;28;20396;-51
2022/04/11 07:55:15;;;;;;;3.57;3.23;;;;;;;;;;5012459;28;20425;-50
2022/04/11 07:57:42;;;;;;;3.90;3.50;;;;;;;;;;5012581;28;20622;-50
2022/04/11 08:00:08;;;;;;;5.30;3.40;;;;;;;;;;5012459;28;20487;-50
2022/04/11 08:02:34;;;;;;;6.43;3.67;;;;;;;;;;5014612;28;20975;-50
2022/04/11 08:05:03;;;;;;;4.10;2.97;;;;;;;;;;5032366;28;20450;-51
2022/04/11 08:07:30;;;;;;;4.53;3.23;;;;;;;;;;5029195;28;20452;-50
2022/04/11 08:09:56;;;;;;;7.47;3.10;;;;;;;;;;5049086;28;20405;-50
2022/04/11 08:12:22;;;;;;;8.13;3.30;;;;;;;;;;5039435;28;20429;-49
2022/04/11 08:14:48;;;;;;;4.23;3.07;;;;;;;;;;5034414;28;20520;-51
2022/04/11 08:17:14;;;;;;;4.10;3.07;;;;;;;;;;5031620;28;20410;-51
2022/04/11 08:19:39;;;;;;;3.50;2.23;;;;;;;;;;5029124;28;20489;-51
2022/04/11 08:22:06;;;;;;;4.37;3.13;;;;;;;;;;5035441;28;20437;-50
2022/04/11 08:24:32;;;;;;;4.03;2.93;;;;;;;;;;5030658;28;20442;-50
2022/04/11 08:26:58;;;;;;;3.57;2.83;;;;;;;;;;5030513;28;20465;-51
2022/04/11 08:29:25;;;;;;;4.10;2.90;;;;;;;;;;5031433;28;20406;-50
2022/04/11 08:31:51;;;;;;;3.30;2.73;;;;;;;;;;5018697;28;20417;-50
2022/04/11 08:36:45;;;;;;;3.50;2.30;;;;;;;;;;4993145;28;20216;-53
2022/04/11 08:39:11;;;;;;;4.47;2.80;;;;;;;;;;4995900;28;20424;-53
2022/04/11 08:41:38;;;;;;;2.80;2.30;;;;;;;;;;4991644;28;20419;-52
2022/04/11 08:44:05;;;;;;;3.63;3.07;;;;;;;;;;4995514;28;20473;-52
2022/04/11 08:46:32;;;;;;;4.33;2.90;;;;;;;;;;5011705;28;20451;-53
2022/04/11 08:48:59;;;;;;;3.47;3.00;;;;;;;;;;4998395;28;20408;-51
2022/04/11 08:51:26;;;;;;;7.00;2.70;;;;;;;;;;4992343;28;20415;-53
2022/04/11 08:53:52;;;;;;;4.20;2.73;;;;;;;;;;5006058;28;20822;-50
2022/04/11 08:56:18;;;;;;;6.60;3.00;;;;;;;;;;5012535;28;20442;-52
2022/04/11 08:58:44;;;;;;;5.53;3.13;;;;;;;;;;5015835;28;20407;-51
2022/04/11 09:01:10;;;;;;;3.20;2.60;;;;;;;;;;5001927;28;20412;-52
2022/04/11 09:03:36;;;;;;;5.43;2.93;;;;;;;;;;4996214;28;20430;-51
2022/04/11 09:06:07;;;;;;;3.13;2.80;;;;;;;;;;4995275;28;20799;-53
2022/04/11 09:08:56;;;;;;;6.17;3.30;;;;;;;;;;4995925;28;20408;-53
2022/04/11 09:11:29;;;;;;;3.53;2.93;;;;;;;;;;5007942;28;20420;-53
2022/04/11 09:13:55;;;;;;;2.70;2.50;;;;;;;;;;4998262;28;20461;-52
2022/04/11 09:16:21;;;;;;;5.63;3.00;;;;;;;;;;4994959;28;20417;-53
2022/04/11 09:18:52;;;;;;;3.60;2.90;;;;;;;;;;4994912;28;20398;-53
2022/04/11 09:21:18;;;;;;;3.27;2.97;;;;;;;;;;4995631;28;20416;-51
2022/04/11 09:23:44;;;;;;;4.00;2.90;;;;;;;;;;4995693;28;20465;-53
2022/04/11 09:26:23;;;;;;;3.50;2.90;;;;;;;;;;4995191;28;20825;-52
2022/04/11 09:29:03;;;;;;;2.37;2.20;;;;;;;;;;4995475;28;20832;-53
2022/04/11 09:31:29;;;;;;;3.00;2.80;;;;;;;;;;4995798;28;20410;-53
2022/04/11 09:33:55;;;;;;;4.47;2.60;;;;;;;;;;4995222;28;20462;-51
2022/04/11 09:36:22;;;;;;;9.77;4.20;;;;;;;;;;4993938;28;20452;-53
2022/04/11 09:39:01;;;;;;;5.77;3.53;;;;;;;;;;4994575;28;20436;-53
2022/04/11 09:41:28;;;;;;;5.97;3.10;;;;;;;;;;4994382;28;20403;-50
2022/04/11 09:43:54;;;;;;;3.30;3.00;;;;;;;;;;4999648;28;20921;-50
2022/04/11 09:46:20;;;;;;;2.90;2.70;;;;;;;;;;5014637;28;20431;-53
2022/04/11 09:48:46;;;;;;;3.97;3.10;;;;;;;;;;5014012;28;20433;-53
2022/04/11 09:51:13;;;;;;;3.43;2.80;;;;;;;;;;5014659;28;20415;-53
2022/04/11 09:53:40;;;;;;;3.17;2.87;;;;;;;;;;4995029;28;20540;-53
2022/04/11 09:56:08;;;;;;;2.93;2.63;;;;;;;;;;4993503;28;21118;-53
2022/04/11 09:58:34;;;;;;;3.87;2.77;;;;;;;;;;4994950;28;20419;-53
2022/04/11 10:01:01;;;;;;;6.63;3.70;;;;;;;;;;4994029;28;20474;-52
2022/04/11 10:03:29;;;;;;;4.67;2.90;;;;;;;;;;4994386;28;20484;-51
2022/04/11 10:05:56;;;;;;;3.17;2.90;;;;;;;;;;4994620;28;20867;-49
2022/04/11 10:08:27;;;;;;;2.73;2.53;;;;;;;;;;4993389;28;20440;-49
2022/04/11 10:10:53;;;;;;;5.93;2.60;;;;;;;;;;4994164;28;20419;-49
2022/04/11 10:13:20;;;;;;;3.70;3.40;;;;;;;;;;4994532;28;20478;-49
2022/04/11 10:15:47;;;;;;;6.83;3.37;;;;;;;;;;4987978;28;20524;-51
2022/04/11 10:18:17;;;;;;;3.37;2.90;;;;;;;;;;4994401;28;20412;-49
2022/04/11 10:20:45;;;;;;;4.40;3.00;;;;;;;;;;4993231;28;20409;-48
2022/04/11 10:23:11;;;;;;;5.60;3.10;;;;;;;;;;4994518;28;20437;-50
2022/04/11 10:25:38;;;;;;;4.20;2.93;;;;;;;;;;4994125;28;20520;-49
2022/04/11 10:28:17;;;;;;;5.27;3.30;;;;;;;;;;4994297;28;20411;-51
2022/04/11 10:30:44;;;;;;;3.90;2.57;;;;;;;;;;4992558;28;20868;-49
2022/04/11 10:33:10;;;;;;;5.93;2.67;;;;;;;;;;4992845;28;20412;-48
2022/04/11 10:35:43;;;;;;;5.87;3.23;;;;;;;;;;4991724;28;20800;-48
2022/04/11 10:38:10;;;;;;;5.23;3.10;;;;;;;;;;4993855;28;20434;-48
2022/04/11 10:40:37;;;;;;;4.70;3.67;;;;;;;;;;4994214;28;20412;-49
2022/04/11 10:43:08;;;;;;;4.03;3.07;;;;;;;;;;4993814;28;20814;-49
2022/04/11 10:45:52;;;;;;;2.70;2.50;;;;;;;;;;5011613;28;20782;-50
2022/04/11 10:48:18;;;;;;;6.37;3.40;;;;;;;;;;4980524;28;20417;-49
2022/04/11 10:50:45;;;;;;;3.00;2.80;;;;;;;;;;4992039;28;20438;-50
2022/04/11 10:53:22;;;;;;;4.90;3.17;;;;;;;;;;4992807;28;20586;-53
2022/04/11 10:55:56;;;;;;;4.00;3.03;;;;;;;;;;4974406;28;20429;-53
2022/04/11 10:58:23;;;;;;;3.00;2.53;;;;;;;;;;4979252;28;20509;-53
2022/04/11 11:00:49;;;;;;;5.23;2.70;;;;;;;;;;4993413;28;20411;-51
2022/04/11 11:03:15;;;;;;;4.10;2.73;;;;;;;;;;4993457;28;20913;-50
2022/04/11 11:05:45;;;;;;;2.93;2.63;;;;;;;;;;4993635;28;20427;-53
2022/04/11 11:08:11;;;;;;;3.10;2.33;;;;;;;;;;4993391;28;20475;-53
2022/04/11 11:10:41;;;;;;;3.37;2.60;;;;;;;;;;4993697;28;20414;-53
2022/04/11 11:13:26;;;;;;;3.83;2.80;;;;;;;;;;4993197;28;20783;-53
2022/04/11 11:15:53;;;;;;;3.37;2.67;;;;;;;;;;4993307;28;20482;-53
2022/04/11 11:18:19;;;;;;;4.00;3.70;;;;;;;;;;4993296;28;20915;-53
2022/04/11 11:20:50;;;;;;;3.37;2.50;;;;;;;;;;4992931;28;20415;-53
2022/04/11 11:23:26;;;;;;;4.00;2.50;;;;;;;;;;4993450;28;20522;-54
2022/04/11 11:25:53;;;;;;;2.70;2.50;;;;;;;;;;4993000;28;20446;-53
2022/04/11 11:28:20;;;;;;;2.50;2.30;;;;;;;;;;4993145;28;20911;-52
2022/04/11 11:30:46;;;;;;;3.53;2.80;;;;;;;;;;4993102;28;20412;-52
2022/04/11 11:33:18;;;;;;;4.93;3.00;;;;;;;;;;4993124;28;20815;-52
2022/04/11 11:35:45;;;;;;;5.50;3.00;;;;;;;;;;4992694;28;20471;-52
2022/04/11 11:38:12;;;;;;;3.60;2.50;;;;;;;;;;4993010;28;20442;-53
2022/04/11 11:40:43;;;;;;;3.70;2.80;;;;;;;;;;4993004;28;20420;-54
2022/04/11 11:43:16;;;;;;;4.03;3.00;;;;;;;;;;4993233;28;20854;-53
2022/04/11 11:45:42;;;;;;;3.00;2.50;;;;;;;;;;5006056;28;20428;-51
2022/04/11 11:48:20;;;;;;;3.33;3.00;;;;;;;;;;4992885;28;20427;-51
2022/04/11 11:50:47;;;;;;;3.00;2.77;;;;;;;;;;4983897;28;20427;-52
2022/04/11 11:53:13;;;;;;;5.30;2.50;;;;;;;;;;4992641;28;20903;-48
2022/04/11 11:56:00;;;;;;;3.10;2.47;;;;;;;;;;4992169;28;20951;-48
2022/04/11 11:58:35;;;;;;;4.60;2.90;;;;;;;;;;4992903;28;20482;-47
2022/04/11 12:01:02;;;;;;;4.00;3.60;;;;;;;;;;4993625;28;20423;-48
2022/04/11 12:06:14;;;;;;;2.97;2.57;;;;;;;;;;4992466;28;20566;-48
2022/04/11 12:08:40;;;;;;;5.70;3.37;;;;;;;;;;4992007;28;20448;-50
2022/04/11 12:11:06;;;;;;;5.20;3.10;;;;;;;;;;4985421;28;20506;-49
2022/04/11 12:13:33;;;;;;;6.83;2.90;;;;;;;;;;4991639;28;20455;-49
2022/04/11 12:16:08;;;;;;;3.30;2.97;;;;;;;;;;4993584;28;20448;-48
2022/04/11 12:18:50;;;;;;;4.40;3.10;;;;;;;;;;5007853;28;20418;-50
2022/04/11 12:21:16;;;;;;;3.30;2.90;;;;;;;;;;4999436;28;21085;-49
2022/04/11 12:23:46;;;;;;;2.97;2.60;;;;;;;;;;4992203;28;20487;-51
2022/04/11 12:26:12;;;;;;;3.93;3.30;;;;;;;;;;4992127;28;20458;-52
2022/04/11 12:28:38;;;;;;;3.77;2.60;;;;;;;;;;4992148;28;20438;-52
2022/04/11 12:31:11;;;;;;;3.93;2.93;;;;;;;;;;4989679;28;20522;-52
2022/04/11 12:33:39;;;;;;;2.83;2.63;;;;;;;;;;4991468;28;20851;-52
2022/04/11 12:36:09;;;;;;;3.67;2.60;;;;;;;;;;4991939;28;20439;-52
2022/04/11 12:38:58;;;;;;;3.37;2.87;;;;;;;;;;4986447;28;20436;-52
2022/04/11 12:41:25;;;;;;;4.63;3.20;;;;;;;;;;4983610;28;20424;-51
2022/04/11 12:44:09;;;;;;;4.60;2.97;;;;;;;;;;4995580;28;20946;-51
2022/04/11 12:46:41;;;;;;;3.27;2.97;;;;;;;;;;4997167;28;20462;-51
2022/04/11 12:49:08;;;;;;;3.70;3.10;;;;;;;;;;4991024;28;20511;-52
2022/04/11 12:51:34;;;;;;;3.93;2.67;;;;;;;;;;4991746;28;20430;-51
2022/04/11 12:54:01;;;;;;;3.13;2.77;;;;;;;;;;4991598;28;20463;-51
2022/04/11 12:56:33;;;;;;;4.90;3.40;;;;;;;;;;4991744;28;21026;-50
2022/04/11 12:58:59;;;;;;;4.00;3.30;;;;;;;;;;4991895;28;20493;-52
2022/04/11 13:01:25;;;;;;;4.70;2.83;;;;;;;;;;4991735;28;20428;-51
2022/04/11 13:03:51;;;;;;;4.63;3.23;;;;;;;;;;4991927;28;20456;-52
2022/04/11 13:06:16;;;;;;;2.57;2.37;;;;;;;;;;4991269;28;20858;-51
2022/04/11 13:08:42;;;;;;;2.90;2.70;;;;;;;;;;4991921;28;20870;-52
2022/04/11 13:11:08;;;;;;;3.47;3.03;;;;;;;;;;4991305;28;20781;-51
2022/04/11 13:13:34;;;;;;;4.57;2.80;;;;;;;;;;4990993;28;20817;-52
2022/04/11 13:18:46;;;;;;;3.13;2.60;;;;;;;;;;4990831;28;20439;-52
2022/04/11 13:21:13;;;;;;;4.03;2.70;;;;;;;;;;4991278;28;20502;-51
2022/04/11 13:23:39;;;;;;;6.20;2.60;;;;;;;;;;4990429;28;20470;-51
2022/04/11 13:26:05;;;;;;;3.00;2.70;;;;;;;;;;4991203;28;20955;-52
2022/04/11 13:28:31;;;;;;;3.43;2.30;;;;;;;;;;4991254;28;20447;-51
2022/04/11 13:30:58;;;;;;;2.90;2.47;;;;;;;;;;4991325;28;20770;-51
2022/04/11 13:33:24;;;;;;;3.50;2.40;;;;;;;;;;4990448;28;20997;-51
2022/04/11 13:35:50;;;;;;;3.00;2.47;;;;;;;;;;4991406;28;20467;-50
2022/04/11 13:38:16;;;;;;;2.53;2.37;;;;;;;;;;4991290;28;20424;-51
2022/04/11 13:40:42;;;;;;;4.67;2.33;;;;;;;;;;4991741;28;20415;-52
2022/04/11 13:43:09;;;;;;;3.47;2.30;;;;;;;;;;4993405;28;20430;-52
2022/04/11 13:45:35;;;;;;;3.13;2.63;;;;;;;;;;4994262;28;20962;-52
2022/04/11 13:48:02;;;;;;;3.00;2.40;;;;;;;;;;4994862;28;20405;-51
2022/04/11 13:50:28;;;;;;;6.03;2.53;;;;;;;;;;4994270;28;20420;-51
2022/04/11 13:52:54;;;;;;;3.90;2.40;;;;;;;;;;4994318;28;20611;-51
2022/04/11 13:55:20;;;;;;;2.07;1.90;;;;;;;;;;4994272;28;20965;-51
2022/04/11 13:57:46;;;;;;;3.23;2.20;;;;;;;;;;4995093;28;20411;-52
2022/04/11 14:00:12;;;;;;;2.40;2.20;;;;;;;;;;4992151;28;20834;-50
2022/04/11 14:02:38;;;;;;;2.43;2.13;;;;;;;;;;4994278;28;20507;-51
2022/04/11 14:05:05;;;;;;;10.13;2.60;;;;;;;;;;4994444;28;20543;-51
2022/04/11 14:07:31;;;;;;;2.03;1.80;;;;;;;;;;4994812;28;21020;-51
2022/04/11 14:09:57;;;;;;;3.60;2.50;;;;;;;;;;4994525;28;20511;-52
2022/04/11 14:12:22;;;;;;;3.07;1.93;;;;;;;;;;4993901;28;20427;-52
2022/04/11 14:14:48;;;;;;;2.97;2.10;;;;;;;;;;4994448;28;20484;-50
2022/04/11 14:17:15;;;;;;;2.53;2.33;;;;;;;;;;4995315;28;20430;-49
2022/04/11 14:19:41;;;;;;;2.20;2.00;;;;;;;;;;4994478;28;20474;-49
2022/04/11 14:22:07;;;;;;;2.40;1.90;;;;;;;;;;4993001;28;20459;-49
2022/04/11 14:24:33;;;;;;;4.60;2.47;;;;;;;;;;4992189;28;20440;-48
2022/04/11 14:27:00;;;;;;;3.10;2.23;;;;;;;;;;4993090;28;20431;-51
2022/04/11 14:29:26;;;;;;;2.70;2.00;;;;;;;;;;4976907;28;20420;-50
2022/04/11 14:31:52;;;;;;;2.10;2.00;;;;;;;;;;4994140;28;20846;-50
2022/04/11 14:34:18;;;;;;;2.60;2.40;;;;;;;;;;4993757;28;20985;-50
2022/04/11 14:36:44;;;;;;;3.47;2.07;;;;;;;;;;4994010;28;20503;-50
2022/04/11 14:39:10;;;;;;;2.77;2.57;;;;;;;;;;4992874;28;20459;-50
2022/04/11 14:41:36;;;;;;;4.90;2.80;;;;;;;;;;4994148;28;20420;-48
2022/04/11 14:44:02;;;;;;;4.50;2.17;;;;;;;;;;4998050;28;20427;-49
2022/04/11 14:46:28;;;;;;;4.63;2.20;;;;;;;;;;4993904;28;20997;-50
2022/04/11 14:48:54;;;;;;;2.33;2.13;;;;;;;;;;4992859;28;20494;-48